الصفحة الرئيسية
METAR-TAF:

METAR-TAF

مطار :

سان ديني, ريونيون

دائرة عرض: 20-53S, خط طول: 055-31E, ارتفاع: 21 متر

مراقبة الطقس الحالي

تاريخ ووقت الإصدار 34 دقيقة قبل الساعة 20:30UTC
ريح 11 عقدة من الجنوب الشرقي
درجة الحرارة 21°درجة مئوية
الرطوبة 69%
ضغط 1022 hPa
الرؤية 10 كم أو أكثر
الغيوم لا تقل 1500 م ولا وجود لمزنة ركامية السحاب الأسود

METAR: FMEE 252030Z AUTO 14011KT CAVOK 21/15 Q1022 NOSIG

زمن: 01:04 (21:04 UTC)

توقعات

تاريخ ووقت الإصدار 4ساعات و 4 دقيقة قبل الساعة 17:00UTC
التوقعات صالحة من25 الساعة 18 UTC إلى 26 الساعة 24 UTC
ريح 10 عقدة من الشرق
الرؤية 10 كم أو أكثر
غيوم متفرقة على ارتفاع 6800 قدم
أصبح
من 25 الساعة 18 UTC إلى 25 الساعة 20 UTC
ريح 10 عقدة من الجنوب/الجنوب الشرقي
أصبح
من 26 الساعة 04 UTC إلى 26 الساعة 06 UTC
ريح 12 عقدة من الشرق
مؤقت
من 26 الساعة 09 UTC إلى 26 الساعة 14 UTC
ريح 15 عقدة من الشرق/الجنوب الشرقي تتزايد حتى 25 عقدة

TAF: FMEE 251700Z 2518/2624 10010KT 9999 SCT068 BECMG 2518/2520 16010KT BECMG 2604/2606 10012KT TEMPO 2609/2614 11015G25KT

أرصاد الطقس والتوقعات من أكثر من 4000 مطار (تقارير الطقس للمطار METAR والتنبؤ بالطقس بالمطارTAF).

المحطات المتاحة هي النقط الصفراء والحمراء على الخريطة.

حرك المؤشر فوق النقطة لمعرفة اسم المحطة.

ثم انقر لمعرفة أرصاد وتوقعات الطقس.

لتغيير الخارطة: اضغط على الأزرار الخضراء مع رمز الصليب الأسود للتكبير. على الزر الأخضر مع شرطة للتصغير، أو على الأسهم الخضراء للخرائط المجاورة.


METAR-TAF: